Time;durP1;ratioP1;P1;durP2;ratioP2;P2;SDS_P1;SDS_P2;PMS_P1;PMS_P2;Temp;Humidity;BMP_temperature;BMP_pressure;BME280_temperature;BME280_humidity;BME280_pressure;Samples;Min_cycle;Max_cycle;Signal;HPM_P1;HPM_P2
2023/10/28 00:00:29;;;;;;;;;;;18.40;78.90;;;;;;5037498;27;90032;-36
2023/10/28 00:02:55;;;;;;;;;;;18.40;78.80;;;;;;5034133;27;89536;-36
2023/10/28 00:05:21;;;;;;;;;;;18.40;78.80;;;;;;5038004;27;91978;-36
2023/10/28 00:07:46;;;;;;;;;;;18.40;78.80;;;;;;5036084;27;91274;-37
2023/10/28 00:10:13;;;;;;;;;;;18.40;78.90;;;;;;5036700;27;89282;-36
2023/10/28 00:12:39;;;;;;;;;;;18.40;78.90;;;;;;5035960;27;90205;-37
2023/10/28 00:15:05;;;;;;;;;;;18.40;79.00;;;;;;5036846;27;89452;-45
2023/10/28 00:17:30;;;;;;;;;;;18.40;78.90;;;;;;5039438;27;90783;-45
2023/10/28 00:19:56;;;;;;;;;;;18.40;78.90;;;;;;5041913;27;90426;-45
2023/10/28 00:22:22;;;;;;;;;;;18.30;78.90;;;;;;5022301;27;89697;-45
2023/10/28 00:24:47;;;;;;;;;;;18.30;78.90;;;;;;5046788;27;89402;-44
2023/10/28 00:27:13;;;;;;;;;;;18.30;78.80;;;;;;5041030;27;90352;-44
2023/10/28 00:29:39;;;;;;;;;;;18.30;78.80;;;;;;5037803;27;89680;-45
2023/10/28 00:32:05;;;;;;;;;;;18.30;79.00;;;;;;5038872;27;90023;-44
2023/10/28 00:34:32;;;;;;;;;;;18.30;79.00;;;;;;5041910;27;88660;-44
2023/10/28 00:36:58;;;;;;;;;;;18.30;79.00;;;;;;5037253;27;89533;-44
2023/10/28 00:39:24;;;;;;;;;;;18.30;78.90;;;;;;5036618;27;89430;-44
2023/10/28 00:41:49;;;;;;;;;;;18.30;79.00;;;;;;5037751;27;89863;-45
2023/10/28 00:44:15;;;;;;;;;;;18.30;79.00;;;;;;5041712;27;89884;-44
2023/10/28 00:46:41;;;;;;;;;;;18.30;79.10;;;;;;5042205;27;89381;-44
2023/10/28 00:49:07;;;;;;;;;;;18.30;79.10;;;;;;5037986;27;89365;-44
2023/10/28 00:51:33;;;;;;;;;;;18.30;79.10;;;;;;5045195;27;88989;-45
2023/10/28 00:53:59;;;;;;;;;;;18.30;79.10;;;;;;5039448;27;89901;-44
2023/10/28 00:56:24;;;;;;;;;;;18.30;79.00;;;;;;5043516;27;89519;-44
2023/10/28 00:58:52;;;;;;;;;;;18.30;79.00;;;;;;5038897;27;88858;-44
2023/10/28 01:01:18;;;;;;;;;;;18.30;78.90;;;;;;5034547;27;89536;-45
2023/10/28 01:03:44;;;;;;;;;;;18.30;78.90;;;;;;5033304;27;91079;-44
2023/10/28 01:06:10;;;;;;;;;;;18.20;78.80;;;;;;5035617;27;90599;-44
2023/10/28 01:08:36;;;;;;;;;;;18.20;78.80;;;;;;5035748;27;89913;-44
2023/10/28 01:11:02;;;;;;;;;;;18.20;78.80;;;;;;5040375;27;92480;-45
2023/10/28 01:13:28;;;;;;;;;;;18.20;78.90;;;;;;5038403;27;90708;-45
2023/10/28 01:15:53;;;;;;;;;;;18.20;78.90;;;;;;5036506;27;90438;-43
2023/10/28 01:18:19;;;;;;;;;;;18.20;79.60;;;;;;5038457;27;90540;-44
2023/10/28 01:20:44;;;;;;;;;;;18.20;78.80;;;;;;5036494;27;90766;-45
2023/10/28 01:23:10;;;;;;;;;;;18.20;78.80;;;;;;5038617;27;89551;-44
2023/10/28 01:25:35;;;;;;;;;;;18.20;78.70;;;;;;5037889;27;90231;-45
2023/10/28 01:28:01;;;;;;;;;;;18.20;78.80;;;;;;5038978;27;89343;-45
2023/10/28 01:30:27;;;;;;;;;;;18.20;78.80;;;;;;5033443;27;90578;-45
2023/10/28 01:32:52;;;;;;;;;;;18.20;78.80;;;;;;5034493;27;89561;-44
2023/10/28 01:35:18;;;;;;;;;;;18.20;78.90;;;;;;5041277;27;89589;-45
2023/10/28 01:37:43;;;;;;;;;;;18.10;78.80;;;;;;5033823;27;90187;-44
2023/10/28 01:40:13;;;;;;;;;;;18.10;78.90;;;;;;5032502;27;89940;-46
2023/10/28 01:42:39;;;;;;;;;;;18.20;79.00;;;;;;5040710;27;89792;-45
2023/10/28 01:45:05;;;;;;;;;;;18.10;78.90;;;;;;5036128;27;89135;-46
2023/10/28 01:47:31;;;;;;;;;;;18.10;78.80;;;;;;5044605;27;88933;-46
2023/10/28 01:49:57;;;;;;;;;;;18.10;78.90;;;;;;5044044;27;89975;-46
2023/10/28 01:52:23;;;;;;;;;;;18.10;78.80;;;;;;5034752;27;89500;-45
2023/10/28 01:54:49;;;;;;;;;;;18.10;78.90;;;;;;5038859;27;90503;-46
2023/10/28 01:57:14;;;;;;;;;;;18.10;78.80;;;;;;5040529;27;89359;-46
2023/10/28 01:59:40;;;;;;;;;;;18.10;78.80;;;;;;5037171;27;89408;-45
2023/10/28 02:02:07;;;;;;;;;;;18.10;78.70;;;;;;5036636;27;91186;-46
2023/10/28 02:04:33;;;;;;;;;;;18.10;78.70;;;;;;5035517;27;89790;-46
2023/10/28 02:06:59;;;;;;;;;;;18.10;78.70;;;;;;5038670;27;89267;-46
2023/10/28 02:09:25;;;;;;;;;;;18.10;78.70;;;;;;5037288;27;89462;-46
2023/10/28 02:11:52;;;;;;;;;;;18.10;78.70;;;;;;5038451;27;88505;-45
2023/10/28 02:14:23;;;;;;;;;;;18.10;78.80;;;;;;5036781;27;89959;-46
2023/10/28 02:16:49;;;;;;;;;;;18.10;78.80;;;;;;5040323;27;92120;-45
2023/10/28 02:19:15;;;;;;;;;;;18.00;78.70;;;;;;5034723;27;89922;-46
2023/10/28 02:21:40;;;;;;;;;;;18.00;78.70;;;;;;5038945;27;89036;-46
2023/10/28 02:24:06;;;;;;;;;;;18.00;78.70;;;;;;5037550;27;90579;-46
2023/10/28 02:26:34;;;;;;;;;;;18.00;78.90;;;;;;5040290;27;89518;-46
2023/10/28 02:29:00;;;;;;;;;;;18.00;78.80;;;;;;5033955;27;88621;-46
2023/10/28 02:31:25;;;;;;;;;;;18.00;78.70;;;;;;5038413;27;89152;-46
2023/10/28 02:33:51;;;;;;;;;;;18.00;78.80;;;;;;5033598;27;90400;-46
2023/10/28 02:36:17;;;;;;;;;;;18.00;78.70;;;;;;5035236;27;88260;-46
2023/10/28 02:38:42;;;;;;;;;;;18.00;78.70;;;;;;5036504;27;89417;-46
2023/10/28 02:41:08;;;;;;;;;;;18.00;78.80;;;;;;5017564;27;91004;-45
2023/10/28 02:43:38;;;;;;;;;;;18.00;78.70;;;;;;5034502;27;91908;-46
2023/10/28 02:46:04;;;;;;;;;;;18.00;78.70;;;;;;5035227;27;89242;-45
2023/10/28 02:48:30;;;;;;;;;;;18.00;78.70;;;;;;5038316;27;93422;-46
2023/10/28 02:51:02;;;;;;;;;;;18.00;78.80;;;;;;5036789;27;90657;-45
2023/10/28 02:53:27;;;;;;;;;;;18.00;78.70;;;;;;5041951;27;90753;-45
2023/10/28 02:55:53;;;;;;;;;;;18.00;78.70;;;;;;5044668;27;89590;-44
2023/10/28 02:58:19;;;;;;;;;;;18.00;78.80;;;;;;5041849;27;89328;-45
2023/10/28 03:00:44;;;;;;;;;;;18.00;78.80;;;;;;5040077;27;89327;-44
2023/10/28 03:03:10;;;;;;;;;;;18.00;78.70;;;;;;5041332;27;90025;-44
2023/10/28 03:05:35;;;;;;;;;;;18.00;78.70;;;;;;5038293;27;90474;-44
2023/10/28 03:08:01;;;;;;;;;;;18.00;78.90;;;;;;5033291;27;93866;-45
2023/10/28 03:10:26;;;;;;;;;;;18.00;78.80;;;;;;5040705;27;89401;-44
2023/10/28 03:12:52;;;;;;;;;;;18.00;78.70;;;;;;5039394;27;89721;-45
2023/10/28 03:15:17;;;;;;;;;;;18.00;78.80;;;;;;5042311;27;90334;-44
2023/10/28 03:17:43;;;;;;;;;;;17.90;78.80;;;;;;5038497;27;89545;-44
2023/10/28 03:20:11;;;;;;;;;;;17.90;78.80;;;;;;5042115;27;90093;-44
2023/10/28 03:22:37;;;;;;;;;;;17.90;78.80;;;;;;5040828;27;90606;-44
2023/10/28 03:25:03;;;;;;;;;;;17.90;78.80;;;;;;5045649;27;88885;-45
2023/10/28 03:27:29;;;;;;;;;;;17.90;78.70;;;;;;5041635;27;89231;-44
2023/10/28 03:29:55;;;;;;;;;;;17.90;79.50;;;;;;5044353;27;89536;-45
2023/10/28 03:32:20;;;;;;;;;;;18.00;78.90;;;;;;5034077;27;90979;-45
2023/10/28 03:34:47;;;;;;;;;;;17.90;78.80;;;;;;5041820;27;89775;-44
2023/10/28 03:37:12;;;;;;;;;;;17.90;78.80;;;;;;5034704;27;89994;-44
2023/10/28 03:39:38;;;;;;;;;;;17.90;78.70;;;;;;5043879;27;89343;-44
2023/10/28 03:42:05;;;;;;;;;;;17.90;78.70;;;;;;5040868;27;89409;-45
2023/10/28 03:44:31;;;;;;;;;;;17.90;78.80;;;;;;5038599;27;89477;-45
2023/10/28 03:46:57;;;;;;;;;;;17.90;78.80;;;;;;5039452;27;89468;-45
2023/10/28 03:49:22;;;;;;;;;;;17.90;78.80;;;;;;5043371;27;88835;-44
2023/10/28 03:51:48;;;;;;;;;;;17.90;78.80;;;;;;5038193;27;90184;-44
2023/10/28 03:54:13;;;;;;;;;;;17.90;78.80;;;;;;5038319;27;89568;-45
2023/10/28 03:56:39;;;;;;;;;;;17.90;78.80;;;;;;5039082;27;90223;-45
2023/10/28 03:59:04;;;;;;;;;;;17.90;78.80;;;;;;5041227;27;89469;-46
2023/10/28 04:01:30;;;;;;;;;;;17.90;78.90;;;;;;5038023;27;90054;-46
2023/10/28 04:03:56;;;;;;;;;;;17.90;78.90;;;;;;5034509;27;89369;-46
2023/10/28 04:06:21;;;;;;;;;;;17.90;78.80;;;;;;5041200;27;88883;-46
2023/10/28 04:08:47;;;;;;;;;;;17.90;78.80;;;;;;5043753;27;89488;-46
2023/10/28 04:11:12;;;;;;;;;;;17.80;78.80;;;;;;5039274;27;89969;-45
2023/10/28 04:13:39;;;;;;;;;;;17.90;78.80;;;;;;5040041;27;90018;-46
2023/10/28 04:16:05;;;;;;;;;;;17.90;78.80;;;;;;5039882;27;88945;-46
2023/10/28 04:18:30;;;;;;;;;;;17.80;78.80;;;;;;5038617;27;89336;-46
2023/10/28 04:20:56;;;;;;;;;;;17.80;78.90;;;;;;5042860;27;90705;-45
2023/10/28 04:23:21;;;;;;;;;;;17.90;78.70;;;;;;5041096;27;89247;-46
2023/10/28 04:25:47;;;;;;;;;;;17.90;78.80;;;;;;5040494;27;89420;-46
2023/10/28 04:28:12;;;;;;;;;;;17.80;78.70;;;;;;5038610;27;90471;-45
2023/10/28 04:30:38;;;;;;;;;;;17.80;78.70;;;;;;5043126;27;89233;-46
2023/10/28 04:33:05;;;;;;;;;;;17.90;78.80;;;;;;5040934;27;89346;-46
2023/10/28 04:35:31;;;;;;;;;;;17.90;78.80;;;;;;5043619;27;89110;-46
2023/10/28 04:37:56;;;;;;;;;;;17.80;78.70;;;;;;5037400;27;88684;-45
2023/10/28 04:40:22;;;;;;;;;;;17.80;78.70;;;;;;5040346;27;89737;-45
2023/10/28 04:42:47;;;;;;;;;;;17.80;78.70;;;;;;5038714;27;89413;-46
2023/10/28 04:45:13;;;;;;;;;;;17.80;78.70;;;;;;5036135;27;90418;-45
2023/10/28 04:47:38;;;;;;;;;;;17.80;78.70;;;;;;5034032;27;89509;-46
2023/10/28 04:50:04;;;;;;;;;;;17.80;78.80;;;;;;5031595;27;89209;-45
2023/10/28 04:52:30;;;;;;;;;;;17.80;78.70;;;;;;5036892;27;90035;-46
2023/10/28 04:54:56;;;;;;;;;;;17.80;78.70;;;;;;5039655;27;89753;-46
2023/10/28 04:57:21;;;;;;;;;;;17.80;78.80;;;;;;5043022;27;88843;-46
2023/10/28 04:59:48;;;;;;;;;;;17.80;78.80;;;;;;5038180;27;89578;-45
2023/10/28 05:02:13;;;;;;;;;;;17.80;78.90;;;;;;5037402;27;88568;-45
2023/10/28 05:04:39;;;;;;;;;;;17.80;78.90;;;;;;5033022;27;89481;-46
2023/10/28 05:07:04;;;;;;;;;;;17.80;78.80;;;;;;5033323;27;90663;-46
2023/10/28 05:09:30;;;;;;;;;;;17.80;78.80;;;;;;5029884;27;90616;-45
2023/10/28 05:11:58;;;;;;;;;;;17.80;78.70;;;;;;5032219;27;90485;-44
2023/10/28 05:14:24;;;;;;;;;;;17.80;78.90;;;;;;5028582;27;90568;-45
2023/10/28 05:16:50;;;;;;;;;;;17.80;78.90;;;;;;5033905;27;89966;-45
2023/10/28 05:19:18;;;;;;;;;;;17.80;78.90;;;;;;5026616;27;89043;-43
2023/10/28 05:21:44;;;;;;;;;;;17.80;78.90;;;;;;5035487;27;90963;-45
2023/10/28 05:24:10;;;;;;;;;;;17.80;78.90;;;;;;5035704;27;90860;-45
2023/10/28 05:26:35;;;;;;;;;;;17.80;78.90;;;;;;5038582;27;88420;-45
2023/10/28 05:29:00;;;;;;;;;;;17.80;79.20;;;;;;5030941;27;91020;-44
2023/10/28 05:31:26;;;;;;;;;;;17.80;79.10;;;;;;5029415;27;91323;-45
2023/10/28 05:33:52;;;;;;;;;;;17.80;79.00;;;;;;5031827;27;91731;-44
2023/10/28 05:36:17;;;;;;;;;;;17.80;79.00;;;;;;5042203;27;91332;-45
2023/10/28 05:38:43;;;;;;;;;;;17.80;79.00;;;;;;5031194;27;94781;-44
2023/10/28 05:41:09;;;;;;;;;;;17.80;79.20;;;;;;5031115;27;89823;-44
2023/10/28 05:43:35;;;;;;;;;;;17.70;79.20;;;;;;5035245;27;90443;-44
2023/10/28 05:46:02;;;;;;;;;;;17.70;79.30;;;;;;5030856;27;89674;-44
2023/10/28 05:48:28;;;;;;;;;;;17.70;79.30;;;;;;5030603;27;90829;-45
2023/10/28 05:50:55;;;;;;;;;;;17.70;79.40;;;;;;5031194;27;89188;-45
2023/10/28 05:53:21;;;;;;;;;;;17.70;79.40;;;;;;5035763;27;89622;-45
2023/10/28 05:55:47;;;;;;;;;;;17.70;79.30;;;;;;5018173;27;89504;-45
2023/10/28 05:58:12;;;;;;;;;;;17.70;79.30;;;;;;5038380;27;91147;-44
2023/10/28 06:00:41;;;;;;;;;;;17.70;79.30;;;;;;5041391;27;90060;-45
2023/10/28 06:03:06;;;;;;;;;;;17.70;79.40;;;;;;5038084;27;89817;-44
2023/10/28 06:05:32;;;;;;;;;;;17.70;79.50;;;;;;5043267;27;89427;-45
2023/10/28 06:07:57;;;;;;;;;;;17.70;79.50;;;;;;5037151;27;91568;-45
2023/10/28 06:10:24;;;;;;;;;;;17.70;79.60;;;;;;5034335;27;90276;-45
2023/10/28 06:12:50;;;;;;;;;;;17.70;79.60;;;;;;5031637;27;90245;-45
2023/10/28 06:15:16;;;;;;;;;;;17.70;79.70;;;;;;5031335;27;89253;-44
2023/10/28 06:17:41;;;;;;;;;;;17.70;79.80;;;;;;5029461;27;89166;-45
2023/10/28 06:20:07;;;;;;;;;;;17.70;79.70;;;;;;5032091;27;89155;-44
2023/10/28 06:22:34;;;;;;;;;;;17.70;80.20;;;;;;5031164;27;92529;-44
2023/10/28 06:24:59;;;;;;;;;;;17.70;79.80;;;;;;5031853;27;89963;-45
2023/10/28 06:27:25;;;;;;;;;;;17.70;79.70;;;;;;5035253;27;89977;-45
2023/10/28 06:29:50;;;;;;;;;;;17.70;79.70;;;;;;5036432;27;89565;-45
2023/10/28 06:32:16;;;;;;;;;;;17.70;79.60;;;;;;5037052;27;89755;-44
2023/10/28 06:34:41;;;;;;;;;;;17.70;79.60;;;;;;5034450;27;90127;-45
2023/10/28 06:37:07;;;;;;;;;;;17.60;79.60;;;;;;5032455;27;90631;-44
2023/10/28 06:39:35;;;;;;;;;;;17.70;79.60;;;;;;5039572;27;89274;-45
2023/10/28 06:42:01;;;;;;;;;;;17.70;79.60;;;;;;5035082;27;89202;-45
2023/10/28 06:44:27;;;;;;;;;;;17.70;79.50;;;;;;5040448;27;89399;-44
2023/10/28 06:46:52;;;;;;;;;;;17.70;79.50;;;;;;5036702;27;91472;-44
2023/10/28 06:49:18;;;;;;;;;;;17.70;79.50;;;;;;5034899;27;89447;-45
2023/10/28 06:51:44;;;;;;;;;;;17.70;79.50;;;;;;5032673;27;89262;-45
2023/10/28 06:54:10;;;;;;;;;;;17.70;79.50;;;;;;5042354;27;88922;-45
2023/10/28 06:56:35;;;;;;;;;;;17.70;79.40;;;;;;5040599;27;89485;-44
2023/10/28 06:59:01;;;;;;;;;;;17.70;79.30;;;;;;5041231;27;91354;-44
2023/10/28 07:01:26;;;;;;;;;;;17.70;79.30;;;;;;5025717;27;89419;-45
2023/10/28 07:03:52;;;;;;;;;;;17.70;79.30;;;;;;5037594;27;89179;-45
2023/10/28 07:06:18;;;;;;;;;;;17.70;79.30;;;;;;5042106;27;89496;-44
2023/10/28 07:08:46;;;;;;;;;;;17.70;79.30;;;;;;5038134;27;90199;-45
2023/10/28 07:11:12;;;;;;;;;;;17.70;79.30;;;;;;5043341;27;90465;-45
2023/10/28 07:13:37;;;;;;;;;;;17.70;79.30;;;;;;5036769;27;90298;-45
2023/10/28 07:16:03;;;;;;;;;;;17.70;79.10;;;;;;5034312;27;90347;-44
2023/10/28 07:18:32;;;;;;;;;;;17.70;79.10;;;;;;5038243;27;89880;-44
2023/10/28 07:20:58;;;;;;;;;;;17.60;79.00;;;;;;5041159;27;89520;-44
2023/10/28 07:23:26;;;;;;;;;;;17.60;79.10;;;;;;5041255;27;90767;-44
2023/10/28 07:25:52;;;;;;;;;;;17.70;79.20;;;;;;5045132;27;89510;-45
2023/10/28 07:28:18;;;;;;;;;;;17.70;79.20;;;;;;5036108;27;89132;-45
2023/10/28 07:30:51;;;;;;;;;;;17.70;79.30;;;;;;5032756;27;89650;-45
2023/10/28 07:33:20;;;;;;;;;;;17.60;79.40;;;;;;5035905;27;89909;-45
2023/10/28 07:35:47;;;;;;;;;;;17.60;79.50;;;;;;5033039;27;90948;-44
2023/10/28 07:38:13;;;;;;;;;;;17.70;79.50;;;;;;5033901;27;89554;-45
2023/10/28 07:40:42;;;;;;;;;;;17.60;79.50;;;;;;5031621;27;89591;-45
2023/10/28 07:43:11;;;;;;;;;;;17.70;79.40;;;;;;5033472;27;92974;-45
2023/10/28 07:45:38;;;;;;;;;;;17.60;79.40;;;;;;5037116;27;89457;-45
2023/10/28 07:48:06;;;;;;;;;;;17.60;79.40;;;;;;5033450;27;90386;-44
2023/10/28 07:50:33;;;;;;;;;;;17.60;79.40;;;;;;5038527;27;89946;-45
2023/10/28 07:52:58;;;;;;;;;;;17.70;79.40;;;;;;5037669;27;88754;-45
2023/10/28 07:55:24;;;;;;;;;;;17.70;79.30;;;;;;5039340;27;89814;-45
2023/10/28 07:57:50;;;;;;;;;;;17.70;79.20;;;;;;5017452;27;91029;-44
2023/10/28 08:00:15;;;;;;;;;;;17.70;79.20;;;;;;5036620;27;91119;-45
2023/10/28 08:02:44;;;;;;;;;;;17.70;79.30;;;;;;5040187;27;90978;-45
2023/10/28 08:05:10;;;;;;;;;;;17.70;80.00;;;;;;5042784;27;89471;-44
2023/10/28 08:07:39;;;;;;;;;;;17.70;79.30;;;;;;5021058;27;90449;-44
2023/10/28 08:10:05;;;;;;;;;;;17.70;79.30;;;;;;5034973;27;89981;-45
2023/10/28 08:12:30;;;;;;;;;;;17.70;79.30;;;;;;5047006;27;89472;-45
2023/10/28 08:14:59;;;;;;;;;;;17.70;79.20;;;;;;5043734;27;89562;-44
2023/10/28 08:17:24;;;;;;;;;;;17.70;79.20;;;;;;5036951;27;89363;-45
2023/10/28 08:19:50;;;;;;;;;;;17.70;79.10;;;;;;5039251;27;89773;-44
2023/10/28 08:22:15;;;;;;;;;;;17.70;79.10;;;;;;5035280;27;89563;-44
2023/10/28 08:24:41;;;;;;;;;;;17.70;79.00;;;;;;5045317;27;90498;-44
2023/10/28 08:27:08;;;;;;;;;;;17.70;79.00;;;;;;5035944;27;89769;-45
2023/10/28 08:29:34;;;;;;;;;;;17.70;79.00;;;;;;5038426;27;91448;-44
2023/10/28 08:32:00;;;;;;;;;;;17.70;78.80;;;;;;5032232;27;90009;-45
2023/10/28 08:34:26;;;;;;;;;;;17.70;78.80;;;;;;5029990;27;91171;-45
2023/10/28 08:36:52;;;;;;;;;;;17.70;79.00;;;;;;5030686;27;90770;-45
2023/10/28 08:39:17;;;;;;;;;;;17.70;79.00;;;;;;5035953;27;89496;-46
2023/10/28 08:41:43;;;;;;;;;;;17.70;79.00;;;;;;5032221;27;87980;-46
2023/10/28 08:44:08;;;;;;;;;;;17.70;78.90;;;;;;5034250;27;90599;-45
2023/10/28 08:46:35;;;;;;;;;;;17.70;78.90;;;;;;5035583;27;89256;-45
2023/10/28 08:49:01;;;;;;;;;;;17.70;78.90;;;;;;5028267;27;90501;-46
2023/10/28 08:51:26;;;;;;;;;;;17.70;78.90;;;;;;5033354;27;90172;-45
2023/10/28 08:53:56;;;;;;;;;;;17.70;78.80;;;;;;5035615;27;89630;-45
2023/10/28 08:56:24;;;;;;;;;;;17.80;78.70;;;;;;5044383;27;89347;-46
2023/10/28 08:58:50;;;;;;;;;;;17.80;78.60;;;;;;5039799;27;88904;-45
2023/10/28 09:01:27;;;;;;;;;;;17.80;78.60;;;;;;5040438;27;89671;-46
2023/10/28 09:03:54;;;;;;;;;;;17.80;79.00;;;;;;5040401;27;89812;-46
2023/10/28 09:06:20;;;;;;;;;;;17.80;78.60;;;;;;5041316;27;89268;-46
2023/10/28 09:08:46;;;;;;;;;;;17.80;78.60;;;;;;5041873;27;89399;-46
2023/10/28 09:11:12;;;;;;;;;;;17.80;78.60;;;;;;5037202;27;89425;-46
2023/10/28 09:13:41;;;;;;;;;;;17.80;78.40;;;;;;5042932;27;90513;-46
2023/10/28 09:16:08;;;;;;;;;;;17.80;78.40;;;;;;5034577;27;89499;-46
2023/10/28 09:18:38;;;;;;;;;;;17.90;78.40;;;;;;5043264;27;88622;-46
2023/10/28 09:21:05;;;;;;;;;;;17.90;78.50;;;;;;5038872;27;90104;-46
2023/10/28 09:23:30;;;;;;;;;;;17.80;78.40;;;;;;5043574;27;89257;-46
2023/10/28 09:25:56;;;;;;;;;;;17.90;78.50;;;;;;5030306;27;91098;-46
2023/10/28 09:28:22;;;;;;;;;;;17.90;78.60;;;;;;5033985;27;89256;-46
2023/10/28 09:30:47;;;;;;;;;;;17.90;78.50;;;;;;5037560;27;88862;-46
2023/10/28 09:33:14;;;;;;;;;;;17.90;78.60;;;;;;5032394;27;89338;-45
2023/10/28 09:35:41;;;;;;;;;;;17.90;78.50;;;;;;5027608;27;90434;-46
2023/10/28 09:38:08;;;;;;;;;;;17.90;78.60;;;;;;5034787;27;90105;-45
2023/10/28 09:40:34;;;;;;;;;;;17.90;78.60;;;;;;5031121;27;89545;-47
2023/10/28 09:43:02;;;;;;;;;;;17.90;78.50;;;;;;5030416;27;89204;-46
2023/10/28 09:45:27;;;;;;;;;;;17.90;78.70;;;;;;5031012;27;89238;-47
2023/10/28 09:47:57;;;;;;;;;;;17.90;78.70;;;;;;5030361;27;89981;-47
2023/10/28 09:50:23;;;;;;;;;;;18.00;79.00;;;;;;5028490;27;89742;-46
2023/10/28 09:52:50;;;;;;;;;;;17.90;79.60;;;;;;5029309;27;89633;-48
2023/10/28 09:55:18;;;;;;;;;;;18.00;79.20;;;;;;5008062;27;89214;-46
2023/10/28 09:57:45;;;;;;;;;;;18.00;79.30;;;;;;5024437;27;89480;-47
2023/10/28 10:00:17;;;;;;;;;;;18.00;79.90;;;;;;5029023;27;89642;-47
2023/10/28 10:03:03;;;;;;;;;;;18.00;80.20;;;;;;5028551;27;90097;-37
2023/10/28 10:05:32;;;;;;;;;;;18.10;80.90;;;;;;5016591;27;90396;-37
2023/10/28 10:07:59;;;;;;;;;;;18.10;81.50;;;;;;5036804;27;90595;-37
2023/10/28 10:10:25;;;;;;;;;;;18.10;81.90;;;;;;5037066;27;89610;-37
2023/10/28 10:13:00;;;;;;;;;;;18.10;81.70;;;;;;5043376;27;90278;-38
2023/10/28 10:15:29;;;;;;;;;;;18.20;81.70;;;;;;5034911;27;89336;-37
2023/10/28 10:18:07;;;;;;;;;;;18.20;81.50;;;;;;5035426;27;90012;-37
2023/10/28 10:20:33;;;;;;;;;;;18.20;81.40;;;;;;5040513;27;88840;-38
2023/10/28 10:23:00;;;;;;;;;;;18.20;82.80;;;;;;5042185;27;89435;-37
2023/10/28 10:25:31;;;;;;;;;;;18.20;82.50;;;;;;5040809;27;89540;-37
2023/10/28 10:28:11;;;;;;;;;;;18.30;82.20;;;;;;5037121;27;92414;-37
2023/10/28 10:30:37;;;;;;;;;;;18.30;83.20;;;;;;5039930;27;88866;-37
2023/10/28 10:33:03;;;;;;;;;;;18.30;83.00;;;;;;5041618;27;89733;-37
2023/10/28 10:35:30;;;;;;;;;;;18.30;83.10;;;;;;5037806;27;90426;-38
2023/10/28 10:38:02;;;;;;;;;;;18.30;83.00;;;;;;5036390;27;91051;-37
2023/10/28 10:40:32;;;;;;;;;;;18.30;83.00;;;;;;5045518;27;89910;-37
2023/10/28 10:43:09;;;;;;;;;;;18.40;83.60;;;;;;5041072;27;89550;-38
2023/10/28 10:45:35;;;;;;;;;;;18.40;83.70;;;;;;5036774;27;91101;-38
2023/10/28 10:48:02;;;;;;;;;;;18.40;83.90;;;;;;5035424;27;89816;-37
2023/10/28 10:50:28;;;;;;;;;;;18.50;84.00;;;;;;5045032;27;89834;-36
2023/10/28 10:52:54;;;;;;;;;;;18.50;84.10;;;;;;5035878;27;92215;-36
2023/10/28 10:55:22;;;;;;;;;;;18.50;83.40;;;;;;5040811;27;90203;-36
2023/10/28 10:57:47;;;;;;;;;;;18.50;83.10;;;;;;5036840;27;90220;-36
2023/10/28 11:00:13;;;;;;;;;;;18.50;83.10;;;;;;5038407;27;91714;-36
2023/10/28 11:02:39;;;;;;;;;;;18.50;82.90;;;;;;5031698;27;89726;-35
2023/10/28 11:05:04;;;;;;;;;;;18.50;83.10;;;;;;5033045;27;95368;-35
2023/10/28 11:07:30;;;;;;;;;;;18.50;82.70;;;;;;5030232;27;89673;-36
2023/10/28 11:09:55;;;;;;;;;;;18.50;83.00;;;;;;5030865;27;88927;-35
2023/10/28 11:12:22;;;;;;;;;;;18.50;83.20;;;;;;5040687;27;90308;-36
2023/10/28 11:14:48;;;;;;;;;;;18.50;83.00;;;;;;5034267;27;89897;-36
2023/10/28 11:17:13;;;;;;;;;;;18.50;83.10;;;;;;5038076;27;90847;-36
2023/10/28 11:19:46;;;;;;;;;;;18.50;83.50;;;;;;5038170;27;90161;-36
2023/10/28 11:22:12;;;;;;;;;;;18.50;83.60;;;;;;5044276;27;89520;-35
2023/10/28 11:24:38;;;;;;;;;;;18.60;83.50;;;;;;5033978;27;91317;-36
2023/10/28 11:27:03;;;;;;;;;;;18.60;83.40;;;;;;5040248;27;89560;-36
2023/10/28 11:29:29;;;;;;;;;;;18.50;83.10;;;;;;5045535;27;89644;-36
2023/10/28 11:31:55;;;;;;;;;;;18.50;83.10;;;;;;5035155;27;90869;-36
2023/10/28 11:34:20;;;;;;;;;;;18.60;83.00;;;;;;5037332;27;88741;-36
2023/10/28 11:36:46;;;;;;;;;;;18.60;84.10;;;;;;5041780;27;89782;-36
2023/10/28 11:39:13;;;;;;;;;;;18.60;84.80;;;;;;5035245;27;90069;-36
2023/10/28 11:41:42;;;;;;;;;;;18.60;85.00;;;;;;5032088;27;90588;-43
2023/10/28 11:44:10;;;;;;;;;;;18.60;84.80;;;;;;5029994;27;90301;-44
2023/10/28 11:46:35;;;;;;;;;;;18.60;84.50;;;;;;5041317;27;89447;-44
2023/10/28 11:49:01;;;;;;;;;;;18.60;84.20;;;;;;5042405;27;93009;-44
2023/10/28 11:51:28;;;;;;;;;;;18.60;84.20;;;;;;5033413;27;90601;-45
2023/10/28 11:53:53;;;;;;;;;;;18.60;83.90;;;;;;5032036;27;91219;-45
2023/10/28 11:56:21;;;;;;;;;;;18.60;83.80;;;;;;5037278;27;89968;-43
2023/10/28 11:58:50;;;;;;;;;;;18.60;83.70;;;;;;5033435;27;89899;-45
2023/10/28 12:01:16;;;;;;;;;;;18.60;83.90;;;;;;5034124;27;89209;-45
2023/10/28 12:03:41;;;;;;;;;;;18.60;84.00;;;;;;5031897;27;89863;-44
2023/10/28 12:06:07;;;;;;;;;;;18.60;83.90;;;;;;5035861;27;91829;-45
2023/10/28 12:08:33;;;;;;;;;;;18.60;83.90;;;;;;5038319;27;89536;-46
2023/10/28 12:10:58;;;;;;;;;;;18.60;83.80;;;;;;5040898;27;89983;-45
2023/10/28 12:13:26;;;;;;;;;;;18.60;83.70;;;;;;5035119;27;89550;-45
2023/10/28 12:15:51;;;;;;;;;;;18.60;83.50;;;;;;5030009;27;89517;-45
2023/10/28 12:18:17;;;;;;;;;;;18.60;83.20;;;;;;5039676;27;89881;-45
2023/10/28 12:20:42;;;;;;;;;;;18.60;83.20;;;;;;5034663;27;90519;-45
2023/10/28 12:23:09;;;;;;;;;;;18.60;83.00;;;;;;5032492;27;90620;-44
2023/10/28 12:25:35;;;;;;;;;;;18.60;82.90;;;;;;5035418;27;89282;-45
2023/10/28 12:28:00;;;;;;;;;;;18.60;82.80;;;;;;5042511;27;90500;-45
2023/10/28 12:30:27;;;;;;;;;;;18.60;82.70;;;;;;5041816;27;91096;-45
2023/10/28 12:32:52;;;;;;;;;;;18.60;82.60;;;;;;5039263;27;90141;-45
2023/10/28 12:35:18;;;;;;;;;;;18.60;82.40;;;;;;5040902;27;89320;-45
2023/10/28 12:37:44;;;;;;;;;;;18.60;82.40;;;;;;5035985;27;89623;-45
2023/10/28 12:40:10;;;;;;;;;;;18.70;82.30;;;;;;5026892;27;94499;-45
2023/10/28 12:42:36;;;;;;;;;;;18.60;82.10;;;;;;5030568;27;91094;-45
2023/10/28 12:45:03;;;;;;;;;;;18.60;82.00;;;;;;5032311;27;93433;-45
2023/10/28 12:47:29;;;;;;;;;;;18.60;81.90;;;;;;5040095;27;88040;-44
2023/10/28 12:49:55;;;;;;;;;;;18.60;81.60;;;;;;5034265;27;90529;-45
2023/10/28 12:52:20;;;;;;;;;;;18.60;81.50;;;;;;5038121;27;89191;-44
2023/10/28 12:54:46;;;;;;;;;;;18.60;81.70;;;;;;5032597;27;90019;-45
2023/10/28 12:57:12;;;;;;;;;;;18.60;81.70;;;;;;5036007;27;89788;-45
2023/10/28 12:59:37;;;;;;;;;;;18.60;81.50;;;;;;5049181;27;89655;-45
2023/10/28 13:02:04;;;;;;;;;;;18.60;81.60;;;;;;5044141;27;88880;-45
2023/10/28 13:04:30;;;;;;;;;;;18.60;82.00;;;;;;5038968;27;89624;-45
2023/10/28 13:06:55;;;;;;;;;;;18.60;81.50;;;;;;5046249;27;90189;-45
2023/10/28 13:09:23;;;;;;;;;;;18.60;81.50;;;;;;5042808;27;90070;-45
2023/10/28 13:11:48;;;;;;;;;;;18.60;81.30;;;;;;5043202;27;89022;-45
2023/10/28 13:14:18;;;;;;;;;;;18.60;82.00;;;;;;5027867;27;92125;-45
2023/10/28 13:16:44;;;;;;;;;;;18.60;81.20;;;;;;5030337;27;89318;-45
2023/10/28 13:19:09;;;;;;;;;;;18.60;81.00;;;;;;5037095;27;90465;-45
2023/10/28 13:21:35;;;;;;;;;;;18.60;81.00;;;;;;5033919;27;89547;-45
2023/10/28 13:24:00;;;;;;;;;;;18.60;80.90;;;;;;5030217;27;89021;-45
2023/10/28 13:26:26;;;;;;;;;;;18.60;80.90;;;;;;5030242;27;89322;-45
2023/10/28 13:28:51;;;;;;;;;;;18.60;80.80;;;;;;5025909;27;89406;-45
2023/10/28 13:31:17;;;;;;;;;;;18.60;78.60;;;;;;5033560;27;90000;-45
2023/10/28 13:33:42;;;;;;;;;;;18.60;79.80;;;;;;5045241;27;89783;-45
2023/10/28 13:36:08;;;;;;;;;;;18.60;80.10;;;;;;5038928;27;89799;-45
2023/10/28 13:38:35;;;;;;;;;;;18.60;80.20;;;;;;5036997;27;89896;-44
2023/10/28 13:41:00;;;;;;;;;;;18.60;80.30;;;;;;5036507;27;91101;-45
2023/10/28 13:43:26;;;;;;;;;;;18.60;79.90;;;;;;5037241;27;90373;-44
2023/10/28 13:45:52;;;;;;;;;;;18.60;80.10;;;;;;5041983;27;91829;-44
2023/10/28 13:48:18;;;;;;;;;;;18.60;80.50;;;;;;5040592;27;89726;-45
2023/10/28 13:50:44;;;;;;;;;;;18.60;80.60;;;;;;5032820;27;89566;-44
2023/10/28 13:53:10;;;;;;;;;;;18.60;80.80;;;;;;5042278;27;93556;-45
2023/10/28 13:55:37;;;;;;;;;;;18.60;81.00;;;;;;5030768;27;91201;-44
2023/10/28 13:58:02;;;;;;;;;;;18.60;81.10;;;;;;5038614;27;90169;-44
2023/10/28 14:00:28;;;;;;;;;;;18.70;81.30;;;;;;5042274;27;88963;-44
2023/10/28 14:02:54;;;;;;;;;;;18.60;81.50;;;;;;5032841;27;89653;-44
2023/10/28 14:05:20;;;;;;;;;;;18.60;81.30;;;;;;5033527;27;89506;-44
2023/10/28 14:07:46;;;;;;;;;;;18.60;81.40;;;;;;5030781;27;90910;-45
2023/10/28 14:10:11;;;;;;;;;;;18.60;81.30;;;;;;5034797;27;90721;-44